Valley City, ND

4:30 PM CST on December 20, 2014 (GMT -0600)
Jamestown Municipal | Change Station
CLOSE
Current Station
Airport
Location: Jamestown,
Elevation: 1499 ft
Nearby Weather Stations
Active Advisory: Special Statement

Elev 1499 ft 46.93 °N, 98.67 °W | Updated 34 minutes ago

Overcast
Overcast
30 °F
Feels Like 20 °F
N
12
Wind Variable Wind from SSE

Today
High -- | Low -- °F
--% Chance of Precip.
Yesterday
High -- | Low -- °F
Precip. -- in
8:14 AM 4:45 PM
Waning Crescent, 2% visible
Pressure 29.93 in
Visibility 5.0 miles
Clouds Overcast 500 ft
Windchill 20 °F
Dew Point 26 °F
Humidity 85%
Rainfall 0.00 in
Snow Depth Not available.
UV 0 out of 12
Pollen .10 out of 12
Air Quality Not available.
Flu Activity Not available.
METAR KJMS 202156Z AUTO 16010KT 5SM BR OVC005 M01/M03 A2986 RMK AO2 SLP134 T10111033

More Conditions Fewer Conditions

Pressure 29.93 in
Visibility 5.0 miles
Clouds Overcast 500 ft
Windchill 20 °F
Dew Point 26 °F
Humidity 85%
Rainfall 0.00 in
Snow Depth Not available.
UV 0 out of 12
Pollen .10 out of 12
Air Quality Not available.
Flu Activity Not available.
METAR KJMS 202156Z AUTO 16010KT 5SM BR OVC005 M01/M03 A2986 RMK AO2 SLP134 T10111033

More Conditions Fewer Conditions

10-Day Weather Forecast

Almanac

Astronomy

Dec. 20, 2014 Rise Set
Actual Time
Civil Twilight
Nautical Twilight
Astronomical Twilight
Moon
Length of Visible Light
Length of Day
Tomorrow will be .
, % of the Moon is Illuminated

Today's Extremes

State Highs State Lows

Community

WunderPhotos

Upload Photos

1,779,291 photos uploaded!

WunderBlogs® & News

Nearby

Air Quality

  Air Quality AQ Index Pollutant
Not available.

Snow Depth

Station Depth Elevation

Earthquake Activity

City Distance Mag. Time & Date
Minimum magnitude displayed is 2.5.

Coastal Water Temperatures

Place Temperature

Nearby Weather Stations